Time;durP1;ratioP1;P1;durP2;ratioP2;P2;SDS_P1;SDS_P2;PMS_P1;PMS_P2;Temp;Humidity;BMP_temperature;BMP_pressure;BME280_temperature;BME280_humidity;BME280_pressure;Samples;Min_cycle;Max_cycle;Signal;HPM_P1;HPM_P2
2022/01/03 12:22:52;;;;;;;6.13;2.20;;;20.90;99.90;;;;;;5075420;28;20460;-58
2022/01/03 12:25:26;;;;;;;18.75;6.80;;;21.00;99.90;;;;;;5070622;28;20406;-52
2022/01/03 12:27:57;;;;;;;6.85;2.30;;;21.00;99.90;;;;;;5070566;28;20717;-58
2022/01/03 12:30:25;;;;;;;3.87;1.73;;;20.40;99.90;;;;;;5069555;28;20020;-47
2022/01/03 12:33:06;;;;;;;7.97;2.35;;;20.50;99.90;;;;;;5068730;28;20466;-55
2022/01/03 12:35:34;;;;;;;6.70;1.30;;;20.70;99.90;;;;;;5071995;28;20843;-60
2022/01/03 12:38:08;;;;;;;6.82;2.40;;;21.40;99.90;;;;;;5068522;28;20398;-59
2022/01/03 12:40:46;;;;;;;9.75;2.10;;;22.30;99.90;;;;;;5071765;28;20354;-58
2022/01/03 12:48:32;;;;;;;9.73;3.00;;;17.60;98.30;;;;;;5069640;28;20163;-64
2022/01/03 12:51:41;;;;;;;6.10;2.58;;;12.50;99.90;;;;;;5069206;28;20870;-63
2022/01/03 13:03:44;;;;;;;5.47;1.92;;;;;;;;;;5070407;28;20410;-64
2022/01/03 13:06:19;;;;;;;7.13;1.90;;;11.60;99.90;;;;;;5048427;28;20037;-63
2022/01/03 14:05:44;;;;;;;7.90;1.88;;;11.10;99.90;;;;;;5092341;28;20304;-63
2022/01/03 14:08:15;;;;;;;7.53;2.10;;;11.00;99.90;;;;;;5092443;28;20107;-63
2022/01/03 14:10:49;;;;;;;9.25;1.80;;;10.90;99.90;;;;;;5089952;28;20097;-61
2022/01/03 14:13:20;;;;;;;8.30;1.92;;;10.80;99.90;;;;;;5088542;28;20029;-61
2022/01/03 14:16:02;;;;;;;7.90;2.28;;;10.80;99.90;;;;;;5089892;28;20031;-62
2022/01/03 14:18:32;;;;;;;7.50;1.75;;;10.70;99.90;;;;;;5088751;28;20055;-61
2022/01/03 14:21:17;;;;;;;9.05;2.17;;;10.70;99.90;;;;;;5089759;28;20013;-62
2022/01/03 14:23:44;;;;;;;5.05;2.55;;;10.70;99.90;;;;;;5088262;28;20448;-62
2022/01/03 14:26:14;;;;;;;8.07;2.00;;;10.70;99.90;;;;;;5089638;28;20481;-62
2022/01/03 14:28:40;;;;;;;8.55;2.53;;;10.60;99.90;;;;;;5093931;28;20357;-63
2022/01/03 14:31:08;;;;;;;10.73;3.50;;;10.60;99.90;;;;;;5089373;28;20029;-63
2022/01/03 14:33:37;;;;;;;13.82;2.72;;;10.60;99.90;;;;;;5089548;28;20021;-62
2022/01/03 14:36:17;;;;;;;4.03;1.80;;;10.50;99.90;;;;;;5089758;28;20031;-62
2022/01/03 14:38:45;;;;;;;9.38;2.80;;;10.50;99.90;;;;;;5089510;28;20139;-62
2022/01/03 14:41:23;;;;;;;6.78;2.15;;;10.50;99.90;;;;;;5089308;28;20016;-61
2022/01/03 14:43:54;;;;;;;5.43;1.85;;;10.40;99.90;;;;;;5088080;28;20040;-63
2022/01/03 14:46:35;;;;;;;5.72;1.77;;;10.40;99.90;;;;;;5089111;28;20024;-62
2022/01/03 14:49:03;;;;;;;6.60;1.95;;;10.40;99.90;;;;;;5088875;28;20035;-63
2022/01/03 14:51:44;;;;;;;6.75;2.28;;;10.30;99.90;;;;;;5088910;28;20473;-62
2022/01/03 14:54:24;;;;;;;9.05;2.60;;;10.40;99.90;;;;;;5088234;28;20033;-63
2022/01/03 14:56:54;;;;;;;10.38;1.90;;;10.20;99.90;;;;;;5089103;28;20038;-63
2022/01/03 14:59:27;;;;;;;6.75;2.00;;;10.10;99.90;;;;;;5095864;28;20323;-63
2022/01/03 15:01:57;;;;;;;6.30;2.22;;;10.10;99.90;;;;;;5083008;28;20051;-63
2022/01/03 15:04:26;;;;;;;8.32;3.10;;;10.00;99.90;;;;;;5087502;28;20064;-64
2022/01/03 15:06:52;;;;;;;9.60;2.92;;;9.90;99.90;;;;;;5088869;28;20020;-64
2022/01/03 15:09:18;;;;;;;10.98;5.05;;;9.90;99.90;;;;;;5088889;28;20020;-64
2022/01/03 15:11:44;;;;;;;7.95;3.20;;;9.90;99.90;;;;;;5088996;28;20039;-63
2022/01/03 15:14:09;;;;;;;9.02;3.42;;;9.90;99.90;;;;;;5088621;28;20024;-63
2022/01/03 15:16:38;;;;;;;8.15;3.90;;;9.80;99.90;;;;;;5077641;28;20118;-63
2022/01/03 15:19:04;;;;;;;8.60;2.97;;;9.80;99.90;;;;;;5074688;28;20066;-64
2022/01/03 15:21:29;;;;;;;5.75;2.53;;;9.90;99.90;;;;;;5075021;28;20052;-61
2022/01/03 15:23:58;;;;;;;8.52;2.58;;;9.80;99.90;;;;;;5074832;28;20039;-63
2022/01/03 15:26:24;;;;;;;9.90;2.95;;;9.70;99.90;;;;;;5068686;28;20104;-63
2022/01/03 15:28:54;;;;;;;11.45;4.15;;;9.80;99.90;;;;;;5077165;28;20017;-63
2022/01/03 15:31:20;;;;;;;9.38;2.67;;;9.80;99.90;;;;;;5068743;28;20159;-64
2022/01/03 15:33:46;;;;;;;10.68;2.88;;;9.70;99.90;;;;;;5074649;28;20096;-64
2022/01/03 15:36:11;;;;;;;9.27;3.50;;;9.70;99.90;;;;;;5074841;28;20052;-64
2022/01/03 15:38:37;;;;;;;10.38;3.95;;;9.70;99.90;;;;;;5074786;28;20020;-65
2022/01/03 15:41:03;;;;;;;16.20;5.97;;;9.70;99.90;;;;;;5068005;28;20020;-67
2022/01/03 15:43:28;;;;;;;13.82;4.68;;;9.80;99.90;;;;;;5074635;28;20099;-63
2022/01/03 15:45:58;;;;;;;14.25;5.15;;;9.80;99.90;;;;;;5078483;28;20446;-67
2022/01/03 15:48:24;;;;;;;10.07;3.07;;;9.80;99.90;;;;;;5074758;28;20009;-65
2022/01/03 15:50:50;;;;;;;8.15;3.22;;;9.70;99.90;;;;;;5074595;28;20048;-65
2022/01/03 15:53:18;;;;;;;10.50;3.60;;;9.80;99.90;;;;;;5076281;28;20099;-65
2022/01/03 15:55:44;;;;;;;10.68;4.60;;;9.70;99.90;;;;;;5074509;28;20032;-65
2022/01/03 15:58:09;;;;;;;10.05;2.65;;;9.80;99.90;;;;;;5076004;28;20323;-61
2022/01/03 16:00:36;;;;;;;12.43;3.80;;;9.70;99.90;;;;;;5074288;28;20029;-63
2022/01/03 16:03:03;;;;;;;12.43;2.83;;;9.80;99.90;;;;;;5079857;28;20055;-63
2022/01/03 16:05:30;;;;;;;7.63;2.53;;;9.80;99.90;;;;;;5074059;28;20032;-62
2022/01/03 16:08:00;;;;;;;8.77;2.63;;;9.80;99.90;;;;;;5082155;28;20379;-62
2022/01/03 16:10:28;;;;;;;16.67;4.70;;;9.80;99.90;;;;;;5074311;28;20039;-64
2022/01/03 16:12:57;;;;;;;8.23;3.00;;;9.70;99.90;;;;;;5074160;28;20017;-64
2022/01/03 16:15:24;;;;;;;4.85;2.72;;;9.80;99.90;;;;;;5074160;28;20032;-63
2022/01/03 16:17:52;;;;;;;8.65;2.10;;;9.80;99.90;;;;;;5074173;28;20119;-62
2022/01/03 16:20:18;;;;;;;11.27;4.22;;;9.80;99.90;;;;;;5073760;28;20094;-63
2022/01/03 16:22:46;;;;;;;8.13;1.92;;;9.80;99.90;;;;;;5072883;28;20024;-65
2022/01/03 16:25:14;;;;;;;10.00;3.55;;;9.70;99.90;;;;;;5072679;28;20050;-67
2022/01/03 16:27:40;;;;;;;10.25;3.80;;;9.80;99.90;;;;;;5074931;28;20323;-63
2022/01/03 16:30:08;;;;;;;14.60;7.18;;;9.80;99.90;;;;;;5073265;28;20016;-67
2022/01/03 16:32:34;;;;;;;7.57;2.17;;;9.80;99.90;;;;;;5073683;28;20048;-66
2022/01/03 16:35:01;;;;;;;9.13;3.40;;;9.90;99.90;;;;;;5073625;28;20016;-65
2022/01/03 16:37:30;;;;;;;9.65;3.15;;;9.90;99.90;;;;;;5072363;28;20033;-65
2022/01/03 16:39:55;;;;;;;9.48;3.38;;;9.80;99.90;;;;;;5073315;28;20035;-65
2022/01/03 16:42:25;;;;;;;10.32;2.90;;;9.70;99.90;;;;;;5073547;28;20032;-65
2022/01/03 16:44:55;;;;;;;5.90;2.90;;;9.60;99.90;;;;;;5073284;28;20031;-64
2022/01/03 16:47:23;;;;;;;6.53;3.00;;;9.60;99.90;;;;;;5073291;28;20031;-68
2022/01/03 16:49:49;;;;;;;8.07;2.60;;;9.60;99.90;;;;;;5073463;28;20024;-64
2022/01/03 16:52:18;;;;;;;7.38;2.40;;;9.60;99.90;;;;;;5073658;28;20029;-65
2022/01/03 16:54:44;;;;;;;4.88;2.72;;;9.60;99.90;;;;;;5073307;28;20024;-64
2022/01/03 16:57:09;;;;;;;6.03;2.35;;;9.60;99.90;;;;;;5073224;28;20032;-64
2022/01/03 16:59:35;;;;;;;4.82;1.88;;;9.50;99.90;;;;;;5072847;28;20028;-64
2022/01/03 17:02:01;;;;;;;3.75;1.55;;;9.50;99.90;;;;;;5066555;28;20056;-65
2022/01/03 17:04:28;;;;;;;5.07;2.05;;;9.40;99.90;;;;;;5071612;28;20434;-64
2022/01/03 17:06:53;;;;;;;5.55;1.80;;;9.40;99.90;;;;;;5073198;28;20032;-65
2022/01/03 17:09:19;;;;;;;5.00;1.80;;;9.40;99.90;;;;;;5072832;28;20028;-65
2022/01/03 17:11:46;;;;;;;7.38;1.88;;;9.40;99.90;;;;;;5073073;28;20040;-65
2022/01/03 17:14:18;;;;;;;4.13;2.25;;;9.40;99.90;;;;;;5071925;28;20025;-64
2022/01/03 17:16:44;;;;;;;4.35;2.25;;;9.40;99.90;;;;;;5072965;28;20044;-64
2022/01/03 17:19:10;;;;;;;10.45;3.22;;;9.30;99.90;;;;;;5072802;28;20067;-64
2022/01/03 17:21:37;;;;;;;7.38;2.67;;;9.40;99.90;;;;;;5072924;28;20035;-64
2022/01/03 17:24:04;;;;;;;6.68;2.15;;;9.40;99.90;;;;;;5072874;28;20085;-63
2022/01/03 17:26:29;;;;;;;4.88;1.90;;;9.40;99.90;;;;;;5072618;28;20108;-63
2022/01/03 17:28:55;;;;;;;6.55;2.95;;;9.30;99.90;;;;;;5075615;28;20103;-64
2022/01/03 17:31:21;;;;;;;7.63;3.00;;;9.30;99.90;;;;;;5072897;28;20399;-64
2022/01/03 17:33:47;;;;;;;5.22;2.67;;;9.30;99.90;;;;;;5072841;28;20057;-64
2022/01/03 17:36:12;;;;;;;8.90;3.90;;;9.40;99.90;;;;;;5072715;28;20438;-63
2022/01/03 17:38:41;;;;;;;6.80;3.17;;;9.30;99.90;;;;;;5072511;28;20376;-63
2022/01/03 17:41:07;;;;;;;5.97;2.75;;;9.30;99.90;;;;;;5072532;28;20064;-64
2022/01/03 17:43:33;;;;;;;4.25;2.25;;;9.30;99.90;;;;;;5072472;28;20020;-65
2022/01/03 17:46:00;;;;;;;6.53;2.08;;;9.30;99.90;;;;;;5072281;28;20045;-64
2022/01/03 17:48:29;;;;;;;5.32;2.55;;;9.30;99.90;;;;;;5072538;28;20040;-64
2022/01/03 17:50:57;;;;;;;6.07;2.65;;;9.30;99.90;;;;;;5072530;28;20082;-64
2022/01/03 17:53:25;;;;;;;10.95;3.10;;;9.30;99.90;;;;;;5072612;28;20032;-64
2022/01/03 17:55:52;;;;;;;3.60;2.30;;;9.30;99.90;;;;;;5072441;28;20020;-64
2022/01/03 17:58:18;;;;;;;3.95;2.25;;;9.30;99.90;;;;;;5072177;28;20537;-64
2022/01/03 18:00:44;;;;;;;3.45;1.95;;;9.40;99.90;;;;;;5072535;28;20046;-64
2022/01/03 18:03:10;;;;;;;5.13;3.42;;;9.30;99.90;;;;;;5072545;28;20044;-65
2022/01/03 18:05:36;;;;;;;4.22;2.05;;;9.40;99.90;;;;;;5072266;28;20129;-64
2022/01/03 18:08:03;;;;;;;5.10;2.53;;;9.40;99.90;;;;;;5065924;28;20464;-64
2022/01/03 18:10:29;;;;;;;10.43;2.88;;;9.40;99.90;;;;;;5071270;28;20021;-63
2022/01/03 18:13:00;;;;;;;12.52;3.90;;;9.40;99.90;;;;;;5072461;28;20031;-64
2022/01/03 18:15:26;;;;;;;7.25;2.25;;;9.50;99.90;;;;;;5072285;28;20029;-65
2022/01/03 18:17:52;;;;;;;7.15;2.90;;;9.40;99.90;;;;;;5072455;28;20374;-63
2022/01/03 18:20:18;;;;;;;4.88;2.40;;;9.40;99.90;;;;;;5071116;28;20127;-64
2022/01/03 18:22:44;;;;;;;7.13;2.88;;;9.40;99.90;;;;;;5072397;28;20310;-64
2022/01/03 18:25:12;;;;;;;6.10;2.90;;;9.40;99.90;;;;;;5072078;28;20029;-63
2022/01/03 18:27:40;;;;;;;4.68;3.30;;;9.40;99.90;;;;;;5075108;28;20099;-64
2022/01/03 18:30:11;;;;;;;8.25;3.35;;;9.40;99.90;;;;;;5072016;28;20063;-64
2022/01/03 18:32:37;;;;;;;4.30;2.72;;;9.30;99.90;;;;;;5071155;28;20016;-64
2022/01/03 18:35:03;;;;;;;4.95;3.00;;;9.40;99.90;;;;;;5071973;28;20047;-65
2022/01/03 18:37:29;;;;;;;5.22;2.45;;;9.40;99.90;;;;;;5071998;28;20020;-64
2022/01/03 18:39:54;;;;;;;4.95;2.67;;;9.40;99.90;;;;;;5072121;28;20040;-65
2022/01/03 18:42:22;;;;;;;5.20;2.30;;;9.40;99.90;;;;;;5072095;28;20028;-65
2022/01/03 18:44:52;;;;;;;7.63;2.50;;;9.40;99.90;;;;;;5071901;28;20020;-63
2022/01/03 18:47:21;;;;;;;6.40;2.80;;;9.40;99.90;;;;;;5072085;28;20016;-64
2022/01/03 18:49:47;;;;;;;7.30;2.70;;;9.40;99.90;;;;;;5070918;28;20020;-64
2022/01/03 18:52:15;;;;;;;5.80;2.90;;;9.40;99.90;;;;;;5075111;28;20017;-63
2022/01/03 18:54:40;;;;;;;7.15;2.92;;;9.40;99.90;;;;;;5075571;28;20032;-63
2022/01/03 18:57:07;;;;;;;7.45;2.85;;;9.40;99.90;;;;;;5077004;28;20043;-65
2022/01/03 18:59:33;;;;;;;6.13;3.00;;;9.40;99.90;;;;;;5079848;28;20712;-64
2022/01/03 19:01:58;;;;;;;5.13;2.75;;;9.50;99.90;;;;;;5074381;28;20111;-65
2022/01/03 19:04:24;;;;;;;6.38;3.35;;;9.40;99.90;;;;;;5075192;28;20181;-65
2022/01/03 19:06:52;;;;;;;6.30;2.78;;;9.50;99.90;;;;;;5075384;28;20017;-62
2022/01/03 19:09:18;;;;;;;5.25;2.97;;;9.50;99.90;;;;;;5075325;28;20020;-65
2022/01/03 19:11:44;;;;;;;6.15;3.72;;;9.50;99.90;;;;;;5074285;28;20313;-66
2022/01/03 19:14:12;;;;;;;6.53;3.35;;;9.50;99.90;;;;;;5074205;28;20038;-63
2022/01/03 19:16:40;;;;;;;7.15;3.13;;;9.50;99.90;;;;;;5075349;28;20093;-63
2022/01/03 19:19:06;;;;;;;6.75;3.78;;;9.60;99.90;;;;;;5068852;28;20480;-63
2022/01/03 19:21:32;;;;;;;8.30;4.07;;;9.60;99.90;;;;;;5075186;28;20035;-63
2022/01/03 19:24:00;;;;;;;6.22;3.80;;;9.60;99.90;;;;;;5068181;28;20032;-63
2022/01/03 19:26:25;;;;;;;9.90;4.53;;;9.60;99.90;;;;;;5067753;28;20028;-64
2022/01/03 19:28:51;;;;;;;8.13;4.22;;;9.60;99.90;;;;;;5076669;28;20020;-63
2022/01/03 19:31:19;;;;;;;7.78;3.95;;;9.50;99.90;;;;;;5073959;28;20036;-63
2022/01/03 19:39:05;;;;;;;7.35;2.90;;;9.60;99.90;;;;;;5074865;28;20097;-62
2022/01/03 19:41:31;;;;;;;8.10;3.45;;;9.60;99.90;;;;;;5074803;28;20016;-62
2022/01/03 19:43:57;;;;;;;8.98;4.05;;;9.60;99.90;;;;;;5074587;28;20475;-63
2022/01/03 19:46:25;;;;;;;6.63;3.08;;;9.60;99.90;;;;;;5074457;28;20091;-63
2022/01/03 19:48:54;;;;;;;6.15;3.08;;;9.60;99.90;;;;;;5067914;28;20025;-60
2022/01/03 19:51:22;;;;;;;5.53;3.30;;;9.60;99.90;;;;;;5074291;28;20539;-64
2022/01/03 19:53:49;;;;;;;5.38;3.25;;;9.70;99.90;;;;;;5074723;28;20054;-63
2022/01/03 19:56:17;;;;;;;5.80;3.78;;;9.70;99.90;;;;;;5074662;28;20143;-64
2022/01/03 19:58:44;;;;;;;6.82;4.38;;;9.70;99.90;;;;;;5073511;28;20028;-63
2022/01/03 20:01:09;;;;;;;7.18;4.13;;;9.70;99.90;;;;;;5073595;28;20104;-63
2022/01/03 20:03:35;;;;;;;4.90;3.78;;;9.70;99.90;;;;;;5068200;28;20111;-63
2022/01/03 20:06:02;;;;;;;9.77;4.85;;;9.70;99.90;;;;;;5074118;28;20017;-64
2022/01/03 20:08:27;;;;;;;7.57;4.45;;;9.70;99.90;;;;;;5074577;28;20040;-64
2022/01/03 20:10:53;;;;;;;12.40;5.53;;;9.80;99.90;;;;;;5074197;28;20052;-63
2022/01/03 20:13:21;;;;;;;10.55;5.88;;;9.70;99.90;;;;;;5074219;28;20025;-63
2022/01/03 20:15:47;;;;;;;11.23;5.53;;;9.70;99.90;;;;;;5074033;28;20115;-62
2022/01/03 20:18:13;;;;;;;11.05;4.75;;;9.70;99.90;;;;;;5074115;28;20420;-63
2022/01/03 20:20:43;;;;;;;9.10;4.68;;;9.80;99.90;;;;;;5073984;28;20103;-64
2022/01/03 20:23:12;;;;;;;6.45;4.20;;;9.70;99.90;;;;;;5072667;28;20021;-64
2022/01/03 20:25:38;;;;;;;7.93;5.00;;;9.70;99.90;;;;;;5072783;28;20112;-63
2022/01/03 20:28:06;;;;;;;8.20;5.20;;;9.60;99.90;;;;;;5077619;28;20103;-63
2022/01/03 20:30:35;;;;;;;9.88;5.43;;;9.60;99.90;;;;;;5067167;28;20368;-63
2022/01/03 20:33:01;;;;;;;11.15;4.93;;;9.60;99.90;;;;;;5073987;28;20039;-63
2022/01/03 20:35:30;;;;;;;9.10;5.18;;;9.60;99.90;;;;;;5073527;28;20417;-64
2022/01/03 20:37:56;;;;;;;8.65;4.70;;;9.60;99.90;;;;;;5073675;28;20020;-63
2022/01/03 20:40:21;;;;;;;12.25;4.82;;;9.60;99.90;;;;;;5067387;28;20536;-63
2022/01/03 20:42:47;;;;;;;10.48;4.35;;;9.60;99.90;;;;;;5072120;28;20107;-64
2022/01/03 20:45:12;;;;;;;8.20;4.10;;;9.60;99.90;;;;;;5073286;28;20372;-64
2022/01/03 20:47:41;;;;;;;8.45;4.20;;;9.50;99.90;;;;;;5072333;28;20029;-64
2022/01/03 20:50:08;;;;;;;8.07;3.90;;;9.50;99.90;;;;;;5073274;28;20458;-64
2022/01/03 20:52:37;;;;;;;6.57;3.85;;;9.50;99.90;;;;;;5072212;28;20033;-63
2022/01/03 20:55:03;;;;;;;10.13;5.05;;;9.50;99.90;;;;;;5073332;28;20028;-63
2022/01/03 20:57:29;;;;;;;12.63;6.25;;;9.50;99.90;;;;;;5073859;28;20044;-63
2022/01/03 20:59:55;;;;;;;9.88;4.57;;;9.60;99.90;;;;;;5071931;28;20067;-63
2022/01/03 21:02:23;;;;;;;8.88;4.20;;;9.60;99.90;;;;;;5073044;28;20345;-63
2022/01/03 21:04:49;;;;;;;10.35;4.88;;;9.60;99.90;;;;;;5072847;28;20064;-63
2022/01/03 21:07:14;;;;;;;16.33;5.45;;;9.50;99.90;;;;;;5073190;28;20085;-64
2022/01/03 21:09:40;;;;;;;8.85;5.05;;;9.60;99.90;;;;;;5072934;28;20029;-64
2022/01/03 21:12:06;;;;;;;8.38;4.53;;;9.60;99.90;;;;;;5073183;28;20349;-63
2022/01/03 21:14:32;;;;;;;11.35;5.32;;;9.50;99.90;;;;;;5072244;28;20112;-64
2022/01/03 21:16:58;;;;;;;14.05;5.57;;;9.50;99.90;;;;;;5072888;28;20182;-64
2022/01/03 21:19:26;;;;;;;7.70;3.30;;;9.50;99.90;;;;;;5071481;28;20032;-63
2022/01/03 21:21:52;;;;;;;11.82;3.85;;;9.50;99.90;;;;;;5072713;28;20028;-64
2022/01/03 21:24:18;;;;;;;5.85;3.40;;;9.60;99.90;;;;;;5071411;28;20038;-63
2022/01/03 21:26:44;;;;;;;5.78;2.58;;;9.60;99.90;;;;;;5072803;28;20441;-63
2022/01/03 21:29:12;;;;;;;8.98;2.75;;;9.60;99.90;;;;;;5076981;28;20024;-63
2022/01/03 21:31:40;;;;;;;5.70;2.58;;;9.70;99.90;;;;;;5066267;28;20465;-63
2022/01/03 21:34:06;;;;;;;6.65;2.30;;;9.60;99.90;;;;;;5072644;28;20484;-63
2022/01/03 21:36:31;;;;;;;7.22;4.53;;;9.60;99.90;;;;;;5066119;28;20039;-63
2022/01/03 21:39:00;;;;;;;8.35;3.90;;;9.60;99.90;;;;;;5072757;28;20582;-64
2022/01/03 21:41:26;;;;;;;7.63;3.80;;;9.60;99.90;;;;;;5072695;28;20024;-64
2022/01/03 21:43:51;;;;;;;10.02;3.60;;;9.50;99.90;;;;;;5072552;28;20024;-64
2022/01/03 21:46:17;;;;;;;7.95;3.70;;;9.50;99.90;;;;;;5072554;28;20078;-63
2022/01/03 21:48:42;;;;;;;9.60;3.85;;;9.50;99.90;;;;;;5072475;28;20156;-64
2022/01/03 21:51:08;;;;;;;7.90;3.03;;;9.50;99.90;;;;;;5071384;28;20344;-64
2022/01/03 21:53:35;;;;;;;4.05;2.75;;;9.50;99.90;;;;;;5072536;28;20031;-63
2022/01/03 21:56:01;;;;;;;7.10;2.95;;;9.50;99.90;;;;;;5072368;28;20020;-62
2022/01/03 21:58:28;;;;;;;8.75;3.25;;;9.40;99.90;;;;;;5072675;28;20074;-63
2022/01/03 22:00:57;;;;;;;3.90;2.05;;;9.40;99.90;;;;;;5072377;28;20040;-64
2022/01/03 22:03:23;;;;;;;5.30;2.05;;;9.40;99.90;;;;;;5072171;28;20052;-63
2022/01/03 22:05:48;;;;;;;5.40;1.90;;;9.40;99.90;;;;;;5072534;28;20052;-63
2022/01/03 22:08:14;;;;;;;3.75;1.58;;;9.30;99.90;;;;;;5071464;28;20108;-63
2022/01/03 22:10:47;;;;;;;4.90;1.45;;;9.40;99.90;;;;;;5065567;28;20027;-63
2022/01/03 22:13:14;;;;;;;2.40;1.13;;;9.40;99.90;;;;;;5072495;28;20078;-64
2022/01/03 22:15:43;;;;;;;1.67;0.95;;;9.30;99.90;;;;;;5072161;28;20101;-62
2022/01/03 22:18:08;;;;;;;2.80;1.52;;;9.40;99.90;;;;;;5072496;28;20573;-63
2022/01/03 22:20:37;;;;;;;1.73;1.20;;;9.30;99.90;;;;;;5072369;28;20025;-64
2022/01/03 22:23:03;;;;;;;2.40;1.15;;;9.30;99.90;;;;;;5072127;28;20418;-64
2022/01/03 22:25:31;;;;;;;1.95;1.33;;;9.30;99.90;;;;;;5074964;28;20048;-64
2022/01/03 22:27:59;;;;;;;2.75;1.70;;;9.30;99.90;;;;;;5080140;28;20020;-63
2022/01/03 22:30:27;;;;;;;1.23;1.00;;;9.20;99.90;;;;;;5071060;28;20033;-64
2022/01/03 22:32:54;;;;;;;3.05;1.23;;;9.20;99.90;;;;;;5074323;28;20108;-62
2022/01/03 22:35:19;;;;;;;5.55;1.25;;;9.20;99.90;;;;;;5076171;28;20381;-64
2022/01/03 22:37:47;;;;;;;4.07;1.10;;;9.20;99.90;;;;;;5071062;28;20056;-63
2022/01/03 22:40:13;;;;;;;2.28;1.17;;;9.20;99.90;;;;;;5069820;28;20021;-64
2022/01/03 22:42:39;;;;;;;2.50;1.27;;;9.20;99.90;;;;;;5073090;28;20025;-63
2022/01/03 22:45:07;;;;;;;2.55;1.30;;;9.10;99.90;;;;;;5075892;28;20025;-65
2022/01/03 22:47:34;;;;;;;4.95;1.70;;;9.10;99.90;;;;;;5075918;28;20077;-64
2022/01/03 22:50:04;;;;;;;1.67;1.50;;;9.20;99.90;;;;;;5075922;28;20050;-64
2022/01/03 22:52:30;;;;;;;3.97;2.00;;;9.10;99.90;;;;;;5075705;28;20426;-64
2022/01/03 22:54:55;;;;;;;1.75;1.50;;;9.00;99.90;;;;;;5075505;28;20063;-64
2022/01/03 22:57:21;;;;;;;3.20;1.42;;;9.00;99.90;;;;;;5075925;28;20441;-64
2022/01/03 22:59:46;;;;;;;4.50;1.23;;;9.00;99.90;;;;;;5075118;28;20037;-63
2022/01/03 23:02:14;;;;;;;4.80;1.50;;;9.00;99.90;;;;;;5075483;28;20039;-64
2022/01/03 23:04:40;;;;;;;4.60;1.70;;;9.00;99.90;;;;;;5075244;28;20100;-64
2022/01/03 23:07:08;;;;;;;1.80;1.17;;;9.00;99.90;;;;;;5075387;28;20119;-63
2022/01/03 23:09:36;;;;;;;3.63;1.83;;;8.90;99.90;;;;;;5074164;28;20028;-63
2022/01/03 23:12:07;;;;;;;2.38;1.55;;;9.00;99.90;;;;;;5073096;28;20020;-63
2022/01/03 23:14:35;;;;;;;2.90;1.38;;;9.00;99.90;;;;;;5070565;28;20029;-67
2022/01/03 23:17:05;;;;;;;1.88;1.42;;;8.90;99.90;;;;;;5075174;28;20570;-62
2022/01/03 23:19:31;;;;;;;4.93;1.70;;;8.90;99.90;;;;;;5074974;28;20040;-62
2022/01/03 23:21:58;;;;;;;6.07;2.60;;;8.90;99.90;;;;;;5073254;28;20271;-62
2022/01/03 23:24:24;;;;;;;2.40;1.15;;;8.80;99.90;;;;;;5074561;28;20051;-63
2022/01/03 23:26:50;;;;;;;3.15;1.27;;;8.80;99.90;;;;;;5074956;28;20403;-62
2022/01/03 23:29:16;;;;;;;3.05;1.42;;;8.80;99.90;;;;;;5078500;28;20024;-62
2022/01/03 23:31:46;;;;;;;3.20;1.30;;;8.80;99.90;;;;;;5074952;28;20099;-62
2022/01/03 23:34:18;;;;;;;1.97;1.60;;;8.70;99.90;;;;;;5074396;28;20029;-63
2022/01/03 23:36:44;;;;;;;2.17;1.55;;;8.70;99.90;;;;;;5074367;28;20131;-61
2022/01/03 23:39:09;;;;;;;3.28;1.77;;;8.80;99.90;;;;;;5073411;28;20900;-63
2022/01/03 23:41:35;;;;;;;2.78;1.58;;;8.80;99.90;;;;;;5074918;28;20028;-61
2022/01/03 23:44:03;;;;;;;4.18;1.95;;;8.70;99.90;;;;;;5074680;28;20020;-63
2022/01/03 23:46:30;;;;;;;3.80;1.70;;;8.70;99.90;;;;;;5073564;28;20093;-63
2022/01/03 23:48:56;;;;;;;5.28;1.85;;;8.80;99.90;;;;;;5074504;28;20095;-63
2022/01/03 23:51:25;;;;;;;2.45;1.63;;;8.80;99.90;;;;;;5074603;28;20627;-62
2022/01/03 23:53:51;;;;;;;2.33;1.70;;;8.70;99.90;;;;;;5074427;28;20016;-63
2022/01/03 23:56:19;;;;;;;2.13;1.17;;;8.70;99.90;;;;;;5074414;28;20040;-62
2022/01/03 23:58:45;;;;;;;5.65;2.05;;;8.70;99.90;;;;;;5073370;28;20474;-62
